createdAt,value
2024-02-24T00:03:25.863Z,38.55
2024-02-24T00:08:19.888Z,36.38
2024-02-24T00:13:14.853Z,34.80
2024-02-24T00:18:08.702Z,34.20
2024-02-24T00:23:02.904Z,32.50
2024-02-24T00:27:57.301Z,38.08
2024-02-24T00:32:51.357Z,38.67
2024-02-24T00:37:45.781Z,41.40
2024-02-24T00:42:40.380Z,36.25
2024-02-24T00:47:34.511Z,32.75
2024-02-24T00:52:28.386Z,31.08
2024-02-24T00:57:25.438Z,33.97
2024-02-24T01:02:19.954Z,35.22
2024-02-24T01:07:16.410Z,35.08
2024-02-24T01:12:11.301Z,29.92
2024-02-24T01:17:06.982Z,34.78
2024-02-24T01:22:01.660Z,35.35
2024-02-24T01:26:55.758Z,37.85
2024-02-24T01:31:49.795Z,31.45
2024-02-24T01:36:43.299Z,32.80
2024-02-24T01:41:38.258Z,23.83
2024-02-24T01:46:33.292Z,15.18
2024-02-24T01:51:26.877Z,17.58
2024-02-24T01:56:20.404Z,20.38
2024-02-24T02:01:14.585Z,12.30
2024-02-24T02:06:08.717Z,9.80
2024-02-24T02:11:03.257Z,23.95
2024-02-24T02:15:59.698Z,12.77
2024-02-24T02:20:54.414Z,9.40
2024-02-24T02:25:49.034Z,3.25
2024-02-24T02:30:43.671Z,3.92
2024-02-24T02:35:37.654Z,2.83
2024-02-24T02:40:31.823Z,10.32
2024-02-24T02:45:26.142Z,26.63
2024-02-24T02:50:19.971Z,11.13
2024-02-24T02:55:13.635Z,8.23
2024-02-24T03:00:09.214Z,5.38
2024-02-24T03:05:02.976Z,6.50
2024-02-24T03:09:57.335Z,6.75
2024-02-24T03:14:51.923Z,41.20
2024-02-24T03:19:46.086Z,15.02
2024-02-24T03:25:03.495Z,9.07
2024-02-24T03:29:57.857Z,12.85
2024-02-24T03:34:52.360Z,12.70
2024-02-24T03:39:46.518Z,14.13
2024-02-24T03:44:40.691Z,12.77
2024-02-24T03:49:34.711Z,14.43
2024-02-24T03:54:29.260Z,15.27
2024-02-24T03:59:23.861Z,14.88
2024-02-24T04:04:17.935Z,11.30
2024-02-24T04:09:12.180Z,14.18
2024-02-24T04:14:06.121Z,9.27
2024-02-24T04:19:00.271Z,14.18
2024-02-24T04:23:55.024Z,11.40
2024-02-24T04:28:49.074Z,7.10
2024-02-24T04:33:42.755Z,17.77
2024-02-24T04:38:37.289Z,27.38
2024-02-24T04:43:34.157Z,34.65
2024-02-24T04:48:29.237Z,9.60
2024-02-24T04:53:23.255Z,8.70
2024-02-24T04:58:16.964Z,10.65
2024-02-24T05:03:10.791Z,7.10
2024-02-24T05:08:06.234Z,8.27
2024-02-24T05:13:02.977Z,14.57
2024-02-24T05:17:59.268Z,20.23
2024-02-24T05:22:53.446Z,24.27
2024-02-24T05:27:48.148Z,13.18
2024-02-24T05:32:42.459Z,14.15
2024-02-24T05:37:44.652Z,24.48
2024-02-24T05:42:38.298Z,95.13
2024-02-24T05:47:32.707Z,45.88
2024-02-24T05:52:27.046Z,48.38
2024-02-24T05:57:21.195Z,42.35
2024-02-24T06:02:15.378Z,42.63
2024-02-24T06:07:09.606Z,80.63
2024-02-24T06:12:03.611Z,17.60
2024-02-24T06:16:57.994Z,15.60
2024-02-24T06:21:52.145Z,12.10
2024-02-24T06:26:46.362Z,17.83
2024-02-24T06:31:40.518Z,18.48
2024-02-24T06:36:33.931Z,16.20
2024-02-24T06:41:29.498Z,23.58
2024-02-24T06:46:23.810Z,22.42
2024-02-24T06:51:17.655Z,13.30
2024-02-24T06:56:11.900Z,41.08
2024-02-24T07:01:06.436Z,33.83
2024-02-24T07:06:03.425Z,39.42
2024-02-24T07:10:58.184Z,36.88
2024-02-24T07:15:54.028Z,45.22
2024-02-24T07:20:49.116Z,31.50
2024-02-24T07:25:43.421Z,36.65
2024-02-24T07:30:37.703Z,29.25
2024-02-24T07:35:32.006Z,10.52
2024-02-24T07:40:27.729Z,12.48
2024-02-24T07:45:21.924Z,26.63
2024-02-24T07:50:16.814Z,9.90
2024-02-24T07:55:11.118Z,5.65
2024-02-24T08:00:07.164Z,12.95
2024-02-24T08:05:01.131Z,18.00
2024-02-24T08:09:55.651Z,21.98
2024-02-24T08:14:50.055Z,15.43
2024-02-24T08:19:44.783Z,12.50
2024-02-24T08:24:37.850Z,15.60
2024-02-24T08:29:33.694Z,12.65
2024-02-24T08:34:27.131Z,14.10
2024-02-24T08:39:21.434Z,15.13
2024-02-24T08:44:14.910Z,8.95
2024-02-24T08:49:09.220Z,10.65
2024-02-24T08:54:03.330Z,5.63
2024-02-24T08:58:57.867Z,9.98
2024-02-24T09:03:52.952Z,7.32
2024-02-24T09:08:47.190Z,4.03
2024-02-24T09:13:44.455Z,6.38
2024-02-24T09:18:39.253Z,7.57
2024-02-24T09:23:34.029Z,3.42
2024-02-24T09:28:28.583Z,5.05
2024-02-24T09:33:23.438Z,8.07
2024-02-24T09:38:17.280Z,6.18
2024-02-24T09:43:11.240Z,2.15
2024-02-24T09:48:06.993Z,4.03
2024-02-24T09:53:01.553Z,3.42
2024-02-24T09:57:58.745Z,5.40
2024-02-24T10:02:53.153Z,1.98
2024-02-24T10:07:50.088Z,2.85
2024-02-24T10:13:03.898Z,1.70
2024-02-24T10:18:00.895Z,2.17
2024-02-24T10:22:54.165Z,3.42
2024-02-24T10:27:48.958Z,8.02
2024-02-24T10:32:43.926Z,4.45
2024-02-24T10:37:56.402Z,6.32
2024-02-24T10:42:52.874Z,3.03
2024-02-24T10:47:48.866Z,4.80
2024-02-24T10:52:43.982Z,6.70
2024-02-24T10:57:39.509Z,13.77
2024-02-24T11:02:33.510Z,14.85
2024-02-24T11:07:27.028Z,19.48
2024-02-24T11:12:23.491Z,18.30
2024-02-24T11:17:57.784Z,19.10
2024-02-24T11:22:51.869Z,13.70
2024-02-24T11:27:57.614Z,15.50
2024-02-24T11:32:55.047Z,13.23
2024-02-24T11:37:49.694Z,10.63
2024-02-24T11:42:43.686Z,19.67
2024-02-24T11:47:40.334Z,9.63
2024-02-24T11:52:33.912Z,4.13
2024-02-24T11:57:27.622Z,3.60
2024-02-24T12:02:22.008Z,1.30
2024-02-24T12:07:17.860Z,1.98
2024-02-24T12:12:12.364Z,1.67
2024-02-24T12:17:06.650Z,2.28
2024-02-24T12:22:00.474Z,1.23
2024-02-24T12:26:55.195Z,1.00
2024-02-24T12:31:49.281Z,1.52
2024-02-24T12:36:43.157Z,1.67
2024-02-24T12:41:37.456Z,0.85
2024-02-24T12:46:32.521Z,2.58
2024-02-24T12:51:26.663Z,1.60
2024-02-24T12:56:24.064Z,1.45
2024-02-24T13:01:18.303Z,2.92
2024-02-24T13:06:13.326Z,2.60
2024-02-24T13:11:07.600Z,5.18
2024-02-24T13:16:01.737Z,4.13
2024-02-24T13:20:55.734Z,2.50
2024-02-24T13:25:49.127Z,1.63
2024-02-24T13:30:43.541Z,1.48
2024-02-24T13:35:38.975Z,2.58
2024-02-24T13:40:33.473Z,2.95
2024-02-24T13:45:27.577Z,4.68
2024-02-24T13:50:24.038Z,1.02
2024-02-24T13:55:18.215Z,2.00
2024-02-24T14:00:13.615Z,4.78
2024-02-24T14:05:08.481Z,1.13
2024-02-24T14:10:03.160Z,1.48
2024-02-24T14:14:57.176Z,4.70
2024-02-24T14:19:51.745Z,3.75
2024-02-24T14:24:45.378Z,3.03
2024-02-24T14:29:39.721Z,2.80
2024-02-24T14:34:34.719Z,2.35
2024-02-24T14:39:29.633Z,1.48
2024-02-24T14:44:23.156Z,1.98
2024-02-24T14:49:17.717Z,3.38
2024-02-24T14:54:11.020Z,3.47
2024-02-24T14:59:07.221Z,1.73
2024-02-24T15:04:00.556Z,1.55
2024-02-24T15:08:55.109Z,3.30
2024-02-24T15:13:48.712Z,2.33
2024-02-24T15:18:43.401Z,1.17
2024-02-24T15:23:38.100Z,6.70
2024-02-24T15:28:32.245Z,8.32
2024-02-24T15:33:26.220Z,4.90
2024-02-24T15:38:19.855Z,3.25
2024-02-24T15:43:14.373Z,2.65
2024-02-24T15:48:09.548Z,2.92
2024-02-24T15:53:03.927Z,3.17
2024-02-24T15:57:58.468Z,5.50
2024-02-24T16:02:52.650Z,4.32
2024-02-24T16:07:46.984Z,6.25
2024-02-24T16:12:40.799Z,4.05
2024-02-24T16:17:35.605Z,3.83
2024-02-24T16:22:30.069Z,6.78
2024-02-24T16:27:23.361Z,6.32
2024-02-24T16:32:19.100Z,11.48
2024-02-24T16:37:12.687Z,13.98
2024-02-24T16:42:07.984Z,7.82
2024-02-24T16:47:02.295Z,3.97
2024-02-24T16:51:55.845Z,14.65
2024-02-24T16:56:49.697Z,10.60
2024-02-24T17:01:43.568Z,9.45
2024-02-24T17:06:39.941Z,4.28
2024-02-24T17:11:34.246Z,6.93
2024-02-24T17:16:28.434Z,5.72
2024-02-24T17:21:22.689Z,5.60
2024-02-24T17:26:18.278Z,4.10
2024-02-24T17:31:17.045Z,7.30
2024-02-24T17:36:13.436Z,4.57
2024-02-24T17:41:07.018Z,2.45
2024-02-24T17:46:00.562Z,2.97
2024-02-24T17:50:53.997Z,11.13
2024-02-24T17:55:48.460Z,9.77
2024-02-24T18:00:42.683Z,3.08
2024-02-24T18:05:36.944Z,6.32
2024-02-24T18:10:31.888Z,3.88
2024-02-24T18:15:25.075Z,7.03
2024-02-24T18:20:19.584Z,3.38
2024-02-24T18:25:12.917Z,5.53
2024-02-24T18:30:09.642Z,10.95
2024-02-24T18:35:04.354Z,5.22
2024-02-24T18:39:58.739Z,8.00
2024-02-24T18:44:52.145Z,3.40
2024-02-24T18:49:49.042Z,6.85
2024-02-24T18:54:47.094Z,4.30
2024-02-24T18:59:43.619Z,6.93
2024-02-24T19:04:37.654Z,5.10
2024-02-24T19:09:31.956Z,3.67
2024-02-24T19:14:27.079Z,7.32
2024-02-24T19:19:21.688Z,3.83
2024-02-24T19:24:15.745Z,2.83
2024-02-24T19:29:12.611Z,4.95
2024-02-24T19:34:08.043Z,4.82
2024-02-24T19:39:13.057Z,5.38
2024-02-24T19:44:10.953Z,7.82
2024-02-24T19:49:09.454Z,4.55
2024-02-24T19:54:04.930Z,6.78
2024-02-24T19:58:59.324Z,5.25
2024-02-24T20:03:53.327Z,7.03
2024-02-24T20:08:46.773Z,4.63
2024-02-24T20:13:39.808Z,2.15
2024-02-24T20:18:33.386Z,3.22
2024-02-24T20:23:27.094Z,3.55
2024-02-24T20:28:21.255Z,4.45
2024-02-24T20:33:14.432Z,2.30
2024-02-24T20:38:08.632Z,2.72
2024-02-24T20:43:02.117Z,1.92
2024-02-24T20:47:56.311Z,4.13
2024-02-24T20:52:50.011Z,4.15
2024-02-24T20:57:43.571Z,5.15
2024-02-24T21:02:40.549Z,2.33
2024-02-24T21:07:34.045Z,3.25
2024-02-24T21:12:26.742Z,1.90
2024-02-24T21:17:20.830Z,2.22
2024-02-24T21:22:14.480Z,4.15
2024-02-24T21:27:08.510Z,3.20
2024-02-24T21:32:02.068Z,9.23
2024-02-24T21:36:55.406Z,7.40
2024-02-24T21:41:48.204Z,9.02
2024-02-24T21:46:42.025Z,9.75
2024-02-24T21:51:37.113Z,5.60
2024-02-24T21:56:30.510Z,10.98
2024-02-24T22:01:25.657Z,10.70
2024-02-24T22:06:21.328Z,15.13
2024-02-24T22:11:15.597Z,8.65
2024-02-24T22:16:13.434Z,5.25
2024-02-24T22:21:07.160Z,4.65
2024-02-24T22:26:02.049Z,3.47
2024-02-24T22:30:56.395Z,3.85
2024-02-24T22:35:54.149Z,2.65
2024-02-24T22:40:48.564Z,3.67
2024-02-24T22:45:43.884Z,5.03
2024-02-24T22:50:38.473Z,3.47
2024-02-24T22:55:35.873Z,3.97
2024-02-24T23:00:30.600Z,6.80
2024-02-24T23:05:25.161Z,4.80
2024-02-24T23:10:18.890Z,2.25
2024-02-24T23:15:12.504Z,2.00
2024-02-24T23:20:10.523Z,2.92
2024-02-24T23:25:04.548Z,3.42
2024-02-24T23:29:58.888Z,13.27
2024-02-24T23:34:55.770Z,3.28
2024-02-24T23:39:50.271Z,6.60
2024-02-24T23:44:44.504Z,6.28
2024-02-24T23:49:38.763Z,6.65
2024-02-24T23:54:34.405Z,6.28
2024-02-24T23:59:28.251Z,7.15
